Black River (Missouri), Leeper (07062500)

StateMissouriLatestGood (991 cfs)
RiverBlack RiverRatingObservedEstimated
Updated2021-02-25 9:30 (55 minutes ago)Flood - The river is flooding. Obstacles can be treacherous or deadly. The river should be avoided at this stage for casual trips and definitely for the inexperienced. Trips should be attempted only with protective gear and equipment.Flood(none)3475
Discharge991 cfs (median: 892 cfs)High - The river is high and potentially dangerous, especially for the young and / or inexperienced. Normal stream obstacles are sometimes difficult to navigate. Extended distances can be attempted, but canoe travel may not be advisable.High(none)1150
Height3.79 feetGood - Conditions are ideal for a canoe or kayak. Boats typically will drag on fewer than one-quarter of riffles, if at all, and portages are unnecessary or rare. Normal float lengths can be attempted without a problem.Good(none)713
TrendFalling (rising over 24 hours)Low - River is low but can still be floated. Some riffles are okay but most come with significant dragging and might need a portage. Float lengths should be reduced to accommodate low flow, dragging, and portages.Low(none)418
USGSExternal icon USGS Site (External icon Google Maps)Poor - River is too low to float comfortably. Most or all riffles will drag or must be portaged and some obstacles (such as slick shelf rock) cause undue problems. Avoid the river at this stage for casual paddling trips.Poor(none)219

Trending Data

Plot Image

Trips for Black River (Missouri), Leeper (07062500)

DateStartEndDistanceConditionDischargeHeightFishingDetails

A total of 0 rows are displayed.

Condition Descriptions

Fishing Conditions

Fish Species

Notes

Classic Trip List

The classic River Trips application is still available for use. It is updated with the new system using a data retrofit. It is no longer maintained. The original River Trips application is no longer updated (as of 1 Dec 2016) but can be checked for errors or for the condition of the data before it was converted to the new system.

Gauge Data Table

ObservationHeightDischargeMaximum
Discharge
Minimum
Discharge
Mean
Discharge
P05P10P20P25P50
(Median)
P75P80P90P95
2021-02-25 09:30 3.79 991 4820 (1950) 234 (1963) 1240 363 435 512 547 892 1160 1620 3570 4060
2021-02-25 08:30 3.80 996 4820 (1950) 234 (1963) 1240 363 435 512 547 892 1160 1620 3570 4060
2021-02-25 07:30 3.79 991 4820 (1950) 234 (1963) 1240 363 435 512 547 892 1160 1620 3570 4060
2021-02-25 06:30 3.80 996 4820 (1950) 234 (1963) 1240 363 435 512 547 892 1160 1620 3570 4060
2021-02-25 05:30 3.78 985 4820 (1950) 234 (1963) 1240 363 435 512 547 892 1160 1620 3570 4060
2021-02-25 04:30 3.80 996 4820 (1950) 234 (1963) 1240 363 435 512 547 892 1160 1620 3570 4060
2021-02-25 03:30 3.79 991 4820 (1950) 234 (1963) 1240 363 435 512 547 892 1160 1620 3570 4060
2021-02-25 02:30 3.81 1000 4820 (1950) 234 (1963) 1240 363 435 512 547 892 1160 1620 3570 4060
2021-02-25 01:30 3.79 991 4820 (1950) 234 (1963) 1240 363 435 512 547 892 1160 1620 3570 4060
2021-02-25 00:30 3.79 991 4820 (1950) 234 (1963) 1240 363 435 512 547 892 1160 1620 3570 4060
2021-02-24 23:30 3.81 1000 4820 (1950) 237 (1963) 1210 344 408 499 531 925 1230 1370 3430 4060
2021-02-24 22:30 3.80 996 4820 (1950) 237 (1963) 1210 344 408 499 531 925 1230 1370 3430 4060
2021-02-24 21:30 3.80 996 4820 (1950) 237 (1963) 1210 344 408 499 531 925 1230 1370 3430 4060
2021-02-24 20:30 3.80 996 4820 (1950) 237 (1963) 1210 344 408 499 531 925 1230 1370 3430 4060
2021-02-24 19:30 3.79 991 4820 (1950) 237 (1963) 1210 344 408 499 531 925 1230 1370 3430 4060
2021-02-24 18:30 3.78 985 4820 (1950) 237 (1963) 1210 344 408 499 531 925 1230 1370 3430 4060
2021-02-24 17:30 3.77 980 4820 (1950) 237 (1963) 1210 344 408 499 531 925 1230 1370 3430 4060
2021-02-24 16:30 3.78 985 4820 (1950) 237 (1963) 1210 344 408 499 531 925 1230 1370 3430 4060
2021-02-24 15:30 3.76 974 4820 (1950) 237 (1963) 1210 344 408 499 531 925 1230 1370 3430 4060
2021-02-24 14:30 3.78 985 4820 (1950) 237 (1963) 1210 344 408 499 531 925 1230 1370 3430 4060
2021-02-24 13:30 3.76 974 4820 (1950) 237 (1963) 1210 344 408 499 531 925 1230 1370 3430 4060
2021-02-24 12:30 3.75 968 4820 (1950) 237 (1963) 1210 344 408 499 531 925 1230 1370 3430 4060
2021-02-24 11:30 3.73 957 4820 (1950) 237 (1963) 1210 344 408 499 531 925 1230 1370 3430 4060
2021-02-24 10:30 3.71 946 4820 (1950) 237 (1963) 1210 344 408 499 531 925 1230 1370 3430 4060
2021-02-24 09:30 3.71 946 4820 (1950) 237 (1963) 1210 344 408 499 531 925 1230 1370 3430 4060
2021-02-24 08:30 3.72 952 4820 (1950) 237 (1963) 1210 344 408 499 531 925 1230 1370 3430 4060
2021-02-24 07:30 3.72 952 4820 (1950) 237 (1963) 1210 344 408 499 531 925 1230 1370 3430 4060
2021-02-24 06:30 3.71 946 4820 (1950) 237 (1963) 1210 344 408 499 531 925 1230 1370 3430 4060
2021-02-24 05:30 3.72 952 4820 (1950) 237 (1963) 1210 344 408 499 531 925 1230 1370 3430 4060
2021-02-24 04:30 3.71 946 4820 (1950) 237 (1963) 1210 344 408 499 531 925 1230 1370 3430 4060
2021-02-24 03:30 3.70 941 4820 (1950) 237 (1963) 1210 344 408 499 531 925 1230 1370 3430 4060
2021-02-24 02:30 3.71 946 4820 (1950) 237 (1963) 1210 344 408 499 531 925 1230 1370 3430 4060
2021-02-24 01:30 3.70 941 4820 (1950) 237 (1963) 1210 344 408 499 531 925 1230 1370 3430 4060
2021-02-24 00:30 3.67 924 4820 (1950) 237 (1963) 1210 344 408 499 531 925 1230 1370 3430 4060

A total of 34 rows are displayed for years 1949 through 2020.